Time;durP1;ratioP1;P1;durP2;ratioP2;P2;SDS_P1;SDS_P2;PMS_P1;PMS_P2;Temp;Humidity;BMP_temperature;BMP_pressure;BME280_temperature;BME280_humidity;BME280_pressure;Samples;Min_cycle;Max_cycle;Signal;HPM_P1;HPM_P2
2022/08/20 00:00:41;;;;;;;17.92;9.18;;;;;;;21.35;83.24;99842.34;5016238;28;20064;-76
2022/08/20 00:03:09;;;;;;;12.35;7.93;;;;;;;21.34;83.81;99843.72;5016116;28;20467;-75
2022/08/20 00:05:42;;;;;;;15.27;9.70;;;;;;;21.33;83.93;99845.09;5016614;28;20034;-76
2022/08/20 00:08:09;;;;;;;11.43;7.95;;;;;;;21.32;83.95;99843.53;5019275;28;20026;-75
2022/08/20 00:10:42;;;;;;;14.38;9.15;;;;;;;21.32;83.81;99849.34;5019288;28;20021;-76
2022/08/20 00:13:11;;;;;;;15.88;8.45;;;;;;;21.29;84.17;99843.91;5019115;28;20056;-75
2022/08/20 00:15:38;;;;;;;18.58;8.50;;;;;;;21.27;83.71;99850.31;5018559;28;20034;-77
2022/08/20 00:18:05;;;;;;;11.75;8.43;;;;;;;21.27;83.94;99858.25;5002296;28;20030;-76
2022/08/20 00:20:37;;;;;;;14.50;8.93;;;;;;;21.24;83.80;99868.88;5001518;28;20045;-75
2022/08/20 00:23:12;;;;;;;15.48;8.55;;;;;;;21.20;84.48;99859.78;5001963;28;20068;-76
2022/08/20 00:25:46;;;;;;;13.35;8.02;;;;;;;21.15;84.73;99863.66;5020350;28;20022;-76
2022/08/20 00:28:13;;;;;;;12.45;7.30;;;;;;;21.12;84.11;99856.88;5017168;28;20080;-76
2022/08/20 00:30:43;;;;;;;15.90;8.70;;;;;;;21.08;84.02;99858.59;5015908;28;20037;-75
2022/08/20 00:33:12;;;;;;;12.18;8.25;;;;;;;21.06;83.98;99850.47;4983431;28;20038;-74
2022/08/20 00:35:55;;;;;;;11.23;7.93;;;;;;;21.04;84.40;99855.31;5015715;28;20475;-75
2022/08/20 00:38:43;;;;;;;16.63;7.72;;;;;;;21.01;84.50;99862.25;5015646;28;20029;-75
2022/08/20 00:41:12;;;;;;;8.77;7.20;;;;;;;20.96;84.52;99866.13;5015596;28;20069;-76
2022/08/20 00:43:43;;;;;;;12.88;8.05;;;;;;;20.94;84.18;99866.69;4999559;28;20034;-75
2022/08/20 00:46:22;;;;;;;12.18;9.05;;;;;;;20.91;84.28;99867.84;5016777;28;20030;-76
2022/08/20 00:48:53;;;;;;;14.35;7.50;;;;;;;20.90;84.53;99868.41;5015490;28;20021;-76
2022/08/20 00:51:37;;;;;;;11.50;8.15;;;;;;;20.89;84.45;99866.88;5015882;28;20033;-75
2022/08/20 00:54:13;;;;;;;16.60;7.75;;;;;;;20.86;84.44;99862.22;5015580;28;20049;-76
2022/08/20 00:56:39;;;;;;;14.38;8.48;;;;;;;20.87;84.44;99857.97;5016729;28;20112;-76
2022/08/20 00:59:10;;;;;;;12.35;8.20;;;;;;;20.89;84.87;99867.66;5015639;28;20037;-76
2022/08/20 01:01:41;;;;;;;8.82;7.72;;;;;;;20.88;86.08;99865.34;4999030;28;20030;-74
2022/08/20 01:04:09;;;;;;;9.90;8.38;;;;;;;20.91;86.23;99882.38;5015703;28;20037;-76
2022/08/20 01:06:36;;;;;;;13.25;8.13;;;;;;;20.95;85.84;99884.91;4982844;28;20034;-76
2022/08/20 01:09:04;;;;;;;17.50;8.95;;;;;;;20.96;85.39;99895.94;4998427;28;20030;-75
2022/08/20 01:11:32;;;;;;;16.75;9.48;;;;;;;20.98;84.93;99889.56;5014975;28;20499;-77
2022/08/20 01:14:07;;;;;;;13.68;8.57;;;;;;;21.01;84.92;99900.03;5014968;28;20053;-75
2022/08/20 01:16:49;;;;;;;11.95;8.70;;;;;;;20.98;85.07;99901.97;5015284;28;20030;-76
2022/08/20 01:19:19;;;;;;;12.60;8.68;;;;;;;20.97;85.31;99908.34;5014849;28;20491;-76
2022/08/20 01:21:45;;;;;;;14.82;9.27;;;;;;;20.92;85.96;99912.22;4982666;28;20030;-76
2022/08/20 01:24:20;;;;;;;12.65;8.25;;;;;;;20.85;86.67;99901.31;5014628;28;20066;-76
2022/08/20 01:27:02;;;;;;;15.48;8.77;;;;;;;20.76;87.11;99897.63;5016133;28;20026;-76
2022/08/20 01:29:34;;;;;;;13.95;8.77;;;;;;;20.71;87.10;99909.41;4998269;28;20033;-74
2022/08/20 01:32:01;;;;;;;15.30;8.30;;;;;;;20.67;87.14;99909.75;4998453;28;20030;-75
2022/08/20 01:34:27;;;;;;;10.45;8.23;;;;;;;20.63;87.41;99894.06;4982235;28;20033;-74
2022/08/20 01:36:54;;;;;;;14.30;8.23;;;;;;;20.59;87.87;99891.53;4998077;28;20040;-76
2022/08/20 01:39:32;;;;;;;15.75;8.98;;;;;;;20.55;88.13;99893.22;5014916;28;20041;-76
2022/08/20 01:42:20;;;;;;;18.13;9.30;;;;;;;20.55;88.25;99881.59;5015781;28;20064;-76
2022/08/20 01:44:47;;;;;;;14.02;8.30;;;;;;;20.53;88.00;99888.00;5015787;28;20022;-76
2022/08/20 01:47:23;;;;;;;14.88;9.60;;;;;;;20.53;88.17;99884.31;5015466;28;20348;-75
2022/08/20 01:49:53;;;;;;;12.65;8.55;;;;;;;20.53;88.48;99875.63;5014524;28;20041;-74
2022/08/20 01:52:36;;;;;;;13.65;9.23;;;;;;;20.51;88.61;99864.56;4998189;28;20066;-76
2022/08/20 01:55:04;;;;;;;15.10;8.63;;;;;;;20.53;88.63;99869.81;5015598;28;20022;-76
2022/08/20 01:57:29;;;;;;;13.82;8.98;;;;;;;20.54;88.73;99868.47;5014573;28;20036;-75
2022/08/20 01:59:56;;;;;;;13.20;9.18;;;;;;;20.52;88.93;99857.41;5009439;28;20418;-75
2022/08/20 02:02:23;;;;;;;13.32;9.00;;;;;;;20.51;89.03;99858.75;5015442;28;20093;-75
2022/08/20 02:04:50;;;;;;;18.27;9.77;;;;;;;20.50;88.84;99860.09;5014378;28;20547;-75
2022/08/20 02:07:18;;;;;;;12.82;9.57;;;;;;;20.49;89.34;99861.47;5013924;28;20028;-76
2022/08/20 02:09:44;;;;;;;17.90;10.63;;;;;;;20.49;89.10;99854.91;4997552;28;20108;-74
2022/08/20 02:12:16;;;;;;;12.07;9.18;;;;;;;20.49;89.46;99852.00;5013697;28;20069;-75
2022/08/20 02:14:46;;;;;;;15.43;10.25;;;;;;;20.49;89.59;99846.19;5014016;28;20380;-75
2022/08/20 02:17:13;;;;;;;12.82;9.57;;;;;;;20.49;89.62;99852.78;5013772;28;20121;-76
2022/08/20 02:19:52;;;;;;;17.80;10.27;;;;;;;20.50;89.91;99848.50;5014289;28;20038;-76
2022/08/20 02:22:35;;;;;;;15.80;9.95;;;;;;;20.54;89.62;99848.94;5014864;28;20486;-75
2022/08/20 02:25:03;;;;;;;14.55;8.88;;;;;;;20.57;89.70;99846.97;5013568;28;20030;-76
2022/08/20 02:27:38;;;;;;;17.45;9.93;;;;;;;20.59;89.61;99845.06;5013642;28;20092;-75
2022/08/20 02:30:10;;;;;;;18.13;10.23;;;;;;;20.62;89.51;99841.00;5013781;28;20033;-76
2022/08/20 02:32:38;;;;;;;17.23;9.88;;;;;;;20.63;89.65;99844.69;5013580;28;20398;-77
2022/08/20 02:35:07;;;;;;;16.10;10.13;;;;;;;20.63;89.81;99844.69;5013503;28;20030;-76
2022/08/20 02:37:42;;;;;;;18.65;9.25;;;;;;;20.64;89.89;99846.25;5013455;28;20026;-76
2022/08/20 02:40:27;;;;;;;14.75;9.40;;;;;;;20.66;89.56;99849.34;5014762;28;20419;-76
2022/08/20 02:42:54;;;;;;;12.75;9.88;;;;;;;20.67;89.65;99854.59;4983424;28;20026;-76
2022/08/20 02:45:21;;;;;;;15.00;9.13;;;;;;;20.68;89.51;99853.22;5013377;28;20434;-76
2022/08/20 02:48:07;;;;;;;18.98;10.38;;;;;;;20.71;89.61;99842.63;5013527;28;20076;-76
2022/08/20 02:50:34;;;;;;;16.95;9.77;;;;;;;20.70;89.71;99833.13;5014590;28;20375;-74
2022/08/20 02:53:01;;;;;;;21.85;10.45;;;;;;;20.72;89.90;99829.66;4980475;28;20095;-74
2022/08/20 02:55:28;;;;;;;18.08;10.07;;;;;;;20.72;89.53;99841.25;5013164;28;20026;-76
2022/08/20 02:57:58;;;;;;;17.52;9.68;;;;;;;20.77;89.42;99840.31;5012907;28;20087;-75
2022/08/20 03:00:26;;;;;;;16.97;9.87;;;;;;;20.79;89.71;99815.13;5013352;28;20033;-76
2022/08/20 03:02:52;;;;;;;15.55;10.65;;;;;;;20.79;90.42;99799.88;5014486;28;20033;-76
2022/08/20 03:05:18;;;;;;;15.30;9.73;;;;;;;20.81;90.23;99814.56;5014485;28;20045;-76
2022/08/20 03:07:47;;;;;;;16.42;10.55;;;;;;;20.81;90.02;99815.34;5014308;28;20034;-75
2022/08/20 03:10:15;;;;;;;13.80;9.65;;;;;;;20.84;89.61;99822.16;4980510;28;20026;-75
2022/08/20 03:12:42;;;;;;;14.48;10.07;;;;;;;20.88;89.87;99839.19;4996439;28;20057;-75
2022/08/20 03:15:09;;;;;;;17.48;11.40;;;;;;;20.87;90.53;99852.94;4980374;28;20487;-75
2022/08/20 03:17:36;;;;;;;19.52;12.32;;;;;;;20.88;90.90;99860.31;5013085;28;20022;-74
2022/08/20 03:20:06;;;;;;;24.20;13.43;;;;;;;20.95;90.52;99867.47;4980471;28;20473;-76
2022/08/20 03:22:47;;;;;;;22.90;15.60;;;;;;;21.02;90.61;99863.81;5012896;28;20033;-75
2022/08/20 03:25:15;;;;;;;21.48;15.70;;;;;;;21.04;89.51;99858.22;5014203;28;20076;-76
2022/08/20 03:27:43;;;;;;;23.75;17.67;;;;;;;21.08;89.14;99856.47;4996644;28;20030;-76
2022/08/20 03:30:11;;;;;;;31.15;19.65;;;;;;;21.06;88.99;99844.66;5013141;28;20030;-76
2022/08/20 03:32:41;;;;;;;29.80;20.05;;;;;;;21.06;88.65;99859.19;5013990;28;20028;-76
2022/08/20 03:35:11;;;;;;;35.10;23.27;;;;;;;21.07;88.30;99866.53;4996478;28;20034;-76
2022/08/20 03:37:40;;;;;;;30.60;21.38;;;;;;;21.08;88.17;99867.31;5012478;28;20076;-75
2022/08/20 03:40:09;;;;;;;30.17;23.50;;;;;;;21.10;88.36;99867.50;5012623;28;20538;-76
2022/08/20 03:42:38;;;;;;;34.47;25.08;;;;;;;21.09;88.01;99858.00;4996498;28;20084;-74
2022/08/20 03:45:07;;;;;;;35.67;26.42;;;;;;;21.09;87.97;99852.19;5012570;28;20033;-76
2022/08/20 03:47:35;;;;;;;35.85;24.10;;;;;;;21.09;87.89;99858.00;5012691;28;20030;-76
2022/08/20 03:50:02;;;;;;;38.03;25.95;;;;;;;21.10;87.82;99865.38;4995841;28;20107;-76
2022/08/20 03:52:29;;;;;;;36.90;26.05;;;;;;;21.10;87.84;99862.47;5013085;28;20053;-76
2022/08/20 03:54:56;;;;;;;35.53;26.95;;;;;;;21.10;88.25;99861.69;4996157;28;20037;-75
2022/08/20 03:57:30;;;;;;;34.47;26.10;;;;;;;21.11;87.97;99851.63;4996134;28;20034;-75
2022/08/20 03:59:56;;;;;;;36.40;25.52;;;;;;;21.08;87.88;99850.66;5013792;28;20097;-75
2022/08/20 04:02:24;;;;;;;38.25;27.55;;;;;;;21.07;88.01;99851.25;4995822;28;20029;-76
2022/08/20 04:04:50;;;;;;;35.45;26.92;;;;;;;21.06;88.40;99855.50;4995845;28;20030;-76
2022/08/20 04:07:24;;;;;;;39.60;26.40;;;;;;;21.04;88.01;99852.41;5012516;28;20383;-75
2022/08/20 04:09:54;;;;;;;36.72;27.55;;;;;;;21.05;88.23;99851.81;4996725;28;20533;-75
2022/08/20 04:12:22;;;;;;;38.25;27.15;;;;;;;21.06;88.03;99852.59;4995923;28;20045;-75
2022/08/20 04:14:48;;;;;;;34.85;26.77;;;;;;;21.08;88.18;99855.69;4996018;28;20036;-75
2022/08/20 04:17:16;;;;;;;36.42;28.08;;;;;;;21.09;88.34;99863.06;5012375;28;20471;-75
2022/08/20 04:19:43;;;;;;;38.17;27.70;;;;;;;21.11;88.05;99866.16;4995804;28;20053;-76
2022/08/20 04:22:10;;;;;;;40.72;28.38;;;;;;;21.15;88.22;99872.34;5013663;28;20093;-75
2022/08/20 04:24:36;;;;;;;36.60;27.13;;;;;;;21.18;88.01;99863.28;5013233;28;20106;-76
2022/08/20 04:27:04;;;;;;;36.15;26.73;;;;;;;21.22;87.97;99875.31;5012456;28;20026;-76
2022/08/20 04:29:50;;;;;;;36.80;26.80;;;;;;;21.22;87.59;99880.34;5013604;28;20088;-76
2022/08/20 04:32:20;;;;;;;38.90;27.23;;;;;;;21.25;87.61;99893.69;5013241;28;20029;-76
2022/08/20 04:34:45;;;;;;;37.55;27.35;;;;;;;21.27;87.43;99893.13;5013597;28;20026;-76
2022/08/20 04:37:12;;;;;;;34.60;25.08;;;;;;;21.29;87.59;99899.16;5013410;28;20030;-75
2022/08/20 04:39:40;;;;;;;39.53;27.35;;;;;;;21.29;87.58;99884.63;5013169;28;20533;-75
2022/08/20 04:42:07;;;;;;;28.85;21.23;;;;;;;21.29;87.66;99888.28;5013496;28;20026;-77
2022/08/20 04:44:33;;;;;;;27.75;20.63;;;;;;;21.32;87.86;99892.16;4998204;28;20068;-76
2022/08/20 04:47:00;;;;;;;25.83;19.10;;;;;;;21.37;87.78;99880.34;4999115;28;20447;-75
2022/08/20 04:49:28;;;;;;;37.53;27.42;;;;;;;21.40;87.22;99892.94;5015627;28;20030;-76
2022/08/20 04:51:55;;;;;;;43.97;31.20;;;;;;;21.40;87.49;99901.66;5016766;28;20087;-75
2022/08/20 04:54:22;;;;;;;41.90;31.05;;;;;;;21.38;87.52;99896.44;5015757;28;20030;-76
2022/08/20 04:56:49;;;;;;;43.38;29.52;;;;;;;21.37;86.88;99897.03;5016848;28;20022;-75
2022/08/20 04:59:14;;;;;;;43.03;30.35;;;;;;;21.34;86.80;99898.94;5015704;28;20029;-75
2022/08/20 05:01:41;;;;;;;40.00;29.52;;;;;;;21.36;86.72;99907.09;5015297;28;20026;-76
2022/08/20 05:04:06;;;;;;;44.97;31.88;;;;;;;21.32;87.47;99906.72;5015474;28;20026;-75
2022/08/20 05:06:33;;;;;;;44.42;30.63;;;;;;;21.33;87.83;99906.13;5016548;28;20129;-76
2022/08/20 05:09:00;;;;;;;46.03;30.73;;;;;;;21.36;87.65;99913.69;5014213;28;20037;-74
2022/08/20 05:11:27;;;;;;;46.38;30.85;;;;;;;21.49;87.24;99912.75;4998475;28;20515;-75
2022/08/20 05:13:53;;;;;;;49.78;30.70;;;;;;;21.63;86.80;99908.34;5015122;28;20393;-75
2022/08/20 05:16:20;;;;;;;48.40;30.58;;;;;;;21.75;86.35;99915.31;5014909;28;20520;-76
2022/08/20 05:18:46;;;;;;;47.97;31.52;;;;;;;21.85;85.91;99910.47;5015108;28;20025;-74
2022/08/20 05:21:12;;;;;;;46.65;31.38;;;;;;;21.95;85.33;99902.69;5015741;28;20458;-77
2022/08/20 05:23:47;;;;;;;49.25;32.20;;;;;;;21.94;84.93;99900.38;5016146;28;20038;-76
2022/08/20 05:26:14;;;;;;;47.65;32.13;;;;;;;21.95;84.81;99899.78;5015903;28;20080;-75
2022/08/20 05:28:40;;;;;;;45.10;30.27;;;;;;;21.97;84.65;99900.00;5015729;28;20033;-75
2022/08/20 05:31:08;;;;;;;46.25;29.35;;;;;;;21.99;84.21;99891.44;5015990;28;20026;-76
2022/08/20 05:33:39;;;;;;;43.88;29.77;;;;;;;22.16;84.13;99902.50;5014462;28;20026;-76
2022/08/20 05:36:06;;;;;;;44.28;29.65;;;;;;;22.23;83.49;99898.03;4998204;28;20471;-76
2022/08/20 05:38:34;;;;;;;47.00;30.95;;;;;;;22.28;82.69;99894.13;4998412;28;20030;-76
2022/08/20 05:41:09;;;;;;;52.03;31.52;;;;;;;22.30;82.74;99897.25;5014150;28;20472;-74
2022/08/20 05:43:35;;;;;;;50.83;30.75;;;;;;;22.37;82.53;99896.47;4997860;28;20058;-75
2022/08/20 05:46:02;;;;;;;45.35;30.58;;;;;;;22.45;82.10;99903.03;4997833;28;20029;-75
2022/08/20 05:48:28;;;;;;;48.88;30.92;;;;;;;22.53;81.97;99897.94;5015284;28;20451;-76
2022/08/20 05:50:54;;;;;;;42.45;30.45;;;;;;;22.51;81.14;99900.69;5015410;28;20105;-75
2022/08/20 05:53:22;;;;;;;45.28;32.30;;;;;;;22.44;81.46;99895.66;4997592;28;20030;-75
2022/08/20 05:55:49;;;;;;;47.28;31.15;;;;;;;22.47;81.16;99894.50;5015245;28;20021;-74
2022/08/20 05:58:22;;;;;;;47.13;29.27;;;;;;;22.64;80.90;99885.88;5014052;28;20044;-76
2022/08/20 06:00:49;;;;;;;49.28;29.75;;;;;;;22.96;79.89;99887.34;5015408;28;20026;-76
2022/08/20 06:06:00;;;;;;;45.60;30.15;;;;;;;23.57;77.37;99891.44;5014347;28;20116;-75
2022/08/20 06:08:27;;;;;;;49.55;29.67;;;;;;;23.79;75.93;99901.38;4981135;28;20057;-76
2022/08/20 06:10:55;;;;;;;47.15;28.48;;;;;;;23.89;74.97;99902.28;5015032;28;20026;-75
2022/08/20 06:13:21;;;;;;;43.70;29.70;;;;;;;23.88;74.84;99905.78;4980973;28;20037;-76
2022/08/20 06:15:47;;;;;;;47.70;29.92;;;;;;;23.81;74.89;99913.22;5014600;28;20479;-75
2022/08/20 06:18:14;;;;;;;46.83;30.52;;;;;;;23.75;74.87;99910.53;5013386;28;20545;-76
2022/08/20 06:20:40;;;;;;;43.80;28.38;;;;;;;23.71;75.51;99904.34;5015580;28;20399;-76
2022/08/20 06:23:06;;;;;;;42.60;29.40;;;;;;;23.64;75.11;99919.00;5014614;28;20026;-77
2022/08/20 06:25:48;;;;;;;46.55;29.85;;;;;;;23.60;76.20;99922.34;5013622;28;20028;-76
2022/08/20 06:28:14;;;;;;;51.00;29.80;;;;;;;23.51;76.17;99913.41;5013607;28;20479;-76
2022/08/20 06:30:39;;;;;;;46.22;28.83;;;;;;;23.37;76.29;99927.50;4996867;28;20037;-75
2022/08/20 06:33:05;;;;;;;46.80;30.15;;;;;;;23.31;76.44;99921.91;4996914;28;20550;-76
2022/08/20 06:35:33;;;;;;;47.45;29.88;;;;;;;23.30;76.79;99919.59;5013197;28;20017;-76
2022/08/20 06:38:04;;;;;;;42.83;28.08;;;;;;;23.34;77.09;99919.97;5014560;28;20025;-75
2022/08/20 06:40:30;;;;;;;;;;;;;;;23.48;76.67;99915.38;5015194;28;20092;-76
2022/08/20 06:42:57;;;;;;;43.75;28.10;;;;;;;23.49;76.74;99919.88;5013419;28;20004;-76
2022/08/20 06:45:28;;;;;;;46.92;27.77;;;;;;;23.56;76.43;99921.19;5014004;28;20108;-76
2022/08/20 06:47:58;;;;;;;39.70;26.90;;;;;;;23.58;76.34;99913.41;4980864;28;20457;-76
2022/08/20 06:50:28;;;;;;;42.35;25.23;;;;;;;23.69;75.91;99920.91;5013225;28;20395;-75
2022/08/20 06:52:55;;;;;;;38.78;25.60;;;;;;;23.73;75.46;99916.22;5013102;28;20034;-75
2022/08/20 06:55:28;;;;;;;41.97;27.23;;;;;;;23.85;75.08;99915.75;5011534;28;20120;-74
2022/08/20 06:58:05;;;;;;;42.65;26.08;;;;;;;23.79;73.99;99910.91;5014624;28;20041;-76
2022/08/20 07:00:48;;;;;;;40.70;26.15;;;;;;;23.79;74.32;99908.00;4997212;28;20083;-76
2022/08/20 07:03:14;;;;;;;37.53;24.48;;;;;;;23.94;74.81;99912.94;5013077;28;20029;-75
2022/08/20 07:05:41;;;;;;;39.15;26.10;;;;;;;23.88;74.05;99926.22;5012891;28;20057;-76
2022/08/20 07:08:13;;;;;;;44.40;29.40;;;;;;;23.97;74.42;99910.94;4996301;28;20504;-76
2022/08/20 07:10:41;;;;;;;44.67;28.42;;;;;;;23.83;73.56;99915.56;5012871;28;20026;-76
2022/08/20 07:13:08;;;;;;;45.00;26.80;;;;;;;23.83;73.94;99916.31;5014469;28;20033;-76
2022/08/20 07:15:34;;;;;;;39.03;26.45;;;;;;;24.09;73.79;99912.78;5012949;28;20163;-76
2022/08/20 07:18:09;;;;;;;42.70;27.80;;;;;;;24.34;72.63;99920.75;5013056;28;20477;-75
2022/08/20 07:20:37;;;;;;;42.50;26.52;;;;;;;24.68;72.13;99917.06;5012204;28;20054;-76
2022/08/20 07:23:03;;;;;;;45.38;28.58;;;;;;;24.96;71.47;99913.63;5012637;28;20496;-75
2022/08/20 07:25:32;;;;;;;47.05;28.45;;;;;;;24.96;69.71;99911.47;4979601;28;20037;-76
2022/08/20 07:28:03;;;;;;;44.90;29.17;;;;;;;25.16;69.48;99902.84;4996738;28;20636;-75
2022/08/20 07:33:14;;;;;;;41.97;27.60;;;;;;;25.66;68.00;99906.22;5012918;28;20421;-77
2022/08/20 07:35:41;;;;;;;44.42;28.65;;;;;;;25.96;67.16;99914.50;5013078;28;20084;-76
2022/08/20 07:38:23;;;;;;;41.72;26.92;;;;;;;26.23;65.92;99908.56;5014185;28;20052;-76
2022/08/20 07:41:04;;;;;;;;;;;;;;;26.26;64.78;99911.06;4981977;28;20032;-75
2022/08/20 07:43:31;;;;;;;41.47;29.20;;;;;;;26.29;64.17;99909.81;5013729;28;19949;-77
2022/08/20 07:46:00;;;;;;;48.30;30.20;;;;;;;26.47;64.76;99898.72;4996347;28;20313;-76
2022/08/20 07:48:28;;;;;;;74.18;33.10;;;;;;;26.62;62.94;99900.59;4979704;28;20026;-74
2022/08/20 07:50:57;;;;;;;47.50;29.75;;;;;;;26.66;62.62;99907.56;5012459;28;20034;-75
2022/08/20 07:53:25;;;;;;;42.03;27.65;;;;;;;26.70;63.02;99913.72;5012273;28;20548;-76
2022/08/20 07:55:56;;;;;;;43.17;28.73;;;;;;;26.66;62.43;99912.66;4995826;28;20034;-75
2022/08/20 07:58:22;;;;;;;44.13;27.48;;;;;;;26.74;62.73;99922.88;4979766;28;20034;-76
2022/08/20 08:00:48;;;;;;;39.67;25.02;;;;;;;26.76;62.51;99922.25;4996041;28;20021;-76
2022/08/20 08:03:15;;;;;;;35.08;25.60;;;;;;;26.76;62.41;99931.06;4979660;28;20088;-75
2022/08/20 08:05:46;;;;;;;34.80;25.33;;;;;;;26.59;62.01;99934.09;4979670;28;20105;-76
2022/08/20 08:08:18;;;;;;;37.28;24.98;;;;;;;26.62;62.48;99935.78;4996187;28;20487;-77
2022/08/20 08:10:46;;;;;;;34.78;25.25;;;;;;;26.75;61.89;99923.63;5011972;28;20166;-75
2022/08/20 08:13:16;;;;;;;34.78;23.65;;;;;;;27.04;61.49;99933.19;4979602;28;20387;-75
2022/08/20 08:15:48;;;;;;;34.47;23.77;;;;;;;27.30;60.59;99933.63;5012477;28;20022;-76
2022/08/20 08:18:20;;;;;;;33.03;24.17;;;;;;;27.71;59.89;99926.41;5014204;28;20463;-76
2022/08/20 08:20:47;;;;;;;36.15;24.48;;;;;;;28.31;57.18;99923.34;4999832;28;20080;-75
2022/08/20 08:23:13;;;;;;;32.15;23.80;;;;;;;29.18;54.95;99917.59;5015659;28;20069;-77
2022/08/20 08:25:41;;;;;;;32.42;22.98;;;;;;;29.79;52.06;99909.78;5014464;28;20034;-76
2022/08/20 08:28:10;;;;;;;33.58;23.98;;;;;;;30.37;51.29;99897.97;5015739;28;20026;-76
2022/08/20 08:30:39;;;;;;;30.27;21.67;;;;;;;30.91;50.32;99909.41;4999396;28;20084;-75
2022/08/20 08:35:51;;;;;;;29.48;21.23;;;;;;;33.01;46.04;99914.44;5015912;28;20414;-76
2022/08/20 08:38:17;;;;;;;29.08;21.98;;;;;;;33.47;42.66;99913.81;5016605;28;20463;-76
2022/08/20 08:40:43;;;;;;;56.97;25.73;;;;;;;33.64;42.41;99917.56;4999500;28;20026;-75
2022/08/20 08:43:11;;;;;;;31.95;22.08;;;;;;;33.93;41.40;99924.22;5017033;28;20018;-75
2022/08/20 08:45:44;;;;;;;30.85;22.40;;;;;;;34.43;41.19;99912.41;4999429;28;20109;-76
2022/08/20 08:48:30;;;;;;;31.83;22.80;;;;;;;34.52;40.08;99906.16;4999335;28;20165;-75
2022/08/20 08:50:58;;;;;;;30.73;22.00;;;;;;;34.30;39.99;99908.13;5016662;28;20029;-75
2022/08/20 08:53:35;;;;;;;28.58;21.20;;;;;;;34.07;39.70;99902.56;4999271;28;20109;-75
2022/08/20 08:56:02;;;;;;;27.90;21.30;;;;;;;34.41;40.61;99907.16;5015294;28;20029;-75
2022/08/20 08:58:28;;;;;;;28.40;21.20;;;;;;;34.94;40.22;99912.47;4999101;28;20378;-76
2022/08/20 09:00:54;;;;;;;27.00;21.33;;;;;;;35.21;39.05;99915.13;5016617;28;20018;-76
2022/08/20 09:03:30;;;;;;;25.60;20.20;;;;;;;35.91;38.82;99905.34;5016255;28;20493;-76
2022/08/20 09:05:58;;;;;;;26.83;19.45;;;;;;;36.13;37.21;99913.66;4998953;28;20034;-78
2022/08/20 09:08:46;;;;;;;31.08;20.92;;;;;;;36.48;37.48;99918.69;4998642;28;20125;-75
2022/08/20 09:11:13;;;;;;;31.42;21.35;;;;;;;36.92;35.40;99904.66;5016273;28;20034;-76
2022/08/20 09:13:41;;;;;;;28.05;20.77;;;;;;;36.94;34.63;99919.59;5014846;28;20026;-76
2022/08/20 09:16:07;;;;;;;24.00;19.40;;;;;;;36.81;35.50;99915.44;5015074;28;20021;-76
2022/08/20 09:18:34;;;;;;;21.67;19.00;;;;;;;37.05;34.46;99909.56;4998319;28;20444;-76
2022/08/20 09:21:01;;;;;;;30.58;19.75;;;;;;;36.87;34.85;99901.50;5014548;28;20050;-75
2022/08/20 09:23:35;;;;;;;37.28;19.30;;;;;;;36.14;35.20;99918.91;5014400;28;20057;-76
2022/08/20 09:26:01;;;;;;;32.30;18.25;;;;;;;35.48;35.57;99917.75;5014708;28;20024;-76
2022/08/20 09:28:27;;;;;;;25.95;19.23;;;;;;;34.82;36.72;99908.97;5014645;28;20092;-74
2022/08/20 09:30:58;;;;;;;24.60;17.92;;;;;;;34.70;37.97;99907.00;5015308;28;20033;-75
2022/08/20 09:33:31;;;;;;;27.17;19.88;;;;;;;34.75;37.99;99905.75;5014412;28;20066;-76
2022/08/20 09:35:58;;;;;;;26.70;18.65;;;;;;;34.92;38.32;99909.41;5015698;28;20030;-75
2022/08/20 09:38:23;;;;;;;25.00;18.88;;;;;;;34.83;38.06;99905.31;5015531;28;20435;-76
2022/08/20 09:40:50;;;;;;;24.15;19.20;;;;;;;34.80;37.76;99903.72;5015400;28;20118;-75
2022/08/20 09:43:23;;;;;;;30.85;18.75;;;;;;;34.67;38.00;99911.31;5015659;28;20034;-76
2022/08/20 09:45:49;;;;;;;23.63;18.08;;;;;;;34.22;38.27;99905.56;5014340;28;20459;-75
2022/08/20 09:48:15;;;;;;;36.90;19.60;;;;;;;33.73;39.31;99904.69;5015371;28;20045;-75
2022/08/20 09:50:45;;;;;;;21.23;18.98;;;;;;;33.37;39.88;99898.53;5015039;28;20073;-76
2022/08/20 09:53:26;;;;;;;26.55;20.95;;;;;;;33.08;40.18;99904.41;4981962;28;20042;-76
2022/08/20 09:55:53;;;;;;;22.13;19.27;;;;;;;32.75;41.36;99898.28;5015347;28;20033;-75
2022/08/20 09:58:23;;;;;;;24.52;19.05;;;;;;;32.40;41.22;99898.63;5014064;28;20026;-76
2022/08/20 10:00:49;;;;;;;22.55;18.80;;;;;;;32.04;42.97;99894.47;5015217;28;20030;-75
2022/08/20 10:03:16;;;;;;;25.83;21.20;;;;;;;31.72;43.82;99890.50;4981263;28;20121;-76
2022/08/20 10:05:43;;;;;;;30.90;21.00;;;;;;;31.64;44.70;99901.84;5013922;28;20065;-76
2022/08/20 10:08:23;;;;;;;30.00;21.00;;;;;;;31.39;44.92;99897.50;4997541;28;20040;-76
2022/08/20 10:10:49;;;;;;;23.95;18.83;;;;;;;31.34;45.38;99897.94;5014030;28;20026;-76
2022/08/20 10:13:15;;;;;;;25.52;20.27;;;;;;;31.26;45.83;99894.50;5013598;28;20045;-75
2022/08/20 10:15:42;;;;;;;28.40;20.70;;;;;;;31.37;45.24;99893.66;5014823;28;20034;-76
2022/08/20 10:18:09;;;;;;;31.38;21.27;;;;;;;31.13;44.88;99895.94;5013769;28;20058;-76
2022/08/20 10:20:36;;;;;;;27.90;20.35;;;;;;;31.16;44.71;99891.72;5014475;28;20112;-75
2022/08/20 10:23:02;;;;;;;26.13;19.23;;;;;;;31.21;45.62;99896.44;4997398;28;20042;-76
2022/08/20 10:25:30;;;;;;;26.38;19.67;;;;;;;31.41;45.13;99899.78;4981091;28;20368;-76
2022/08/20 10:27:59;;;;;;;29.65;20.00;;;;;;;31.55;45.06;99899.84;5014909;28;20096;-76
2022/08/20 10:30:25;;;;;;;25.80;20.55;;;;;;;31.76;43.72;99893.66;5014877;28;20103;-75
2022/08/20 10:32:52;;;;;;;23.70;19.23;;;;;;;31.71;43.43;99903.72;5015081;28;20046;-76
2022/08/20 10:35:18;;;;;;;24.38;19.30;;;;;;;31.61;44.82;99897.22;4997281;28;20033;-77
2022/08/20 10:37:44;;;;;;;25.75;19.23;;;;;;;31.39;44.60;99897.50;4997111;28;20113;-76
2022/08/20 10:40:14;;;;;;;26.08;20.67;;;;;;;31.10;45.74;99896.50;5013216;28;20057;-76
2022/08/20 10:42:40;;;;;;;30.17;21.33;;;;;;;30.72;46.23;99892.78;5012620;28;20479;-76
2022/08/20 10:45:06;;;;;;;26.33;19.08;;;;;;;30.58;47.12;99909.63;4996980;28;20030;-75
2022/08/20 10:47:33;;;;;;;26.48;18.33;;;;;;;30.63;47.07;99901.78;5012713;28;20165;-76
2022/08/20 10:50:10;;;;;;;26.80;19.77;;;;;;;30.77;46.80;99905.59;5012844;28;20160;-76
2022/08/20 10:52:37;;;;;;;25.23;19.52;;;;;;;30.81;46.28;99902.91;5013257;28;20017;-75
2022/08/20 10:55:05;;;;;;;23.50;19.10;;;;;;;30.79;46.38;99914.59;5014298;28;20022;-76
2022/08/20 10:57:32;;;;;;;26.10;19.20;;;;;;;30.62;46.48;99909.09;5013029;28;20497;-76
2022/08/20 10:59:59;;;;;;;24.60;19.83;;;;;;;30.51;46.96;99904.78;4996782;28;20034;-76
2022/08/20 11:02:26;;;;;;;28.13;19.45;;;;;;;30.37;46.74;99903.88;4980297;28;20041;-75
2022/08/20 11:04:52;;;;;;;22.98;19.00;;;;;;;30.18;47.32;99915.97;5012895;28;20025;-75
2022/08/20 11:07:33;;;;;;;28.20;18.98;;;;;;;30.08;47.62;99913.91;4996368;28;20442;-75
2022/08/20 11:09:58;;;;;;;24.17;19.38;;;;;;;30.12;47.86;99904.56;5009703;28;20038;-77
2022/08/20 11:12:24;;;;;;;24.23;19.77;;;;;;;30.22;48.11;99904.44;4996159;28;20022;-76
2022/08/20 11:15:05;;;;;;;27.20;20.15;;;;;;;30.19;48.09;99905.72;4996568;28;20125;-75
2022/08/20 11:17:32;;;;;;;27.77;20.83;;;;;;;30.10;48.14;99896.38;5014021;28;20080;-75
2022/08/20 11:19:58;;;;;;;25.45;20.25;;;;;;;30.04;48.57;99895.19;5012518;28;20046;-74
2022/08/20 11:22:26;;;;;;;21.98;18.80;;;;;;;29.97;48.49;99894.03;5014348;28;20141;-75
2022/08/20 11:25:06;;;;;;;25.02;18.35;;;;;;;29.89;48.99;99889.81;5012674;28;20037;-76
2022/08/20 11:27:40;;;;;;;22.60;18.25;;;;;;;29.88;48.92;99891.22;4996268;28;20492;-76
2022/08/20 11:30:08;;;;;;;25.73;19.27;;;;;;;30.01;48.63;99891.34;4980603;28;20030;-77
2022/08/20 11:32:33;;;;;;;24.20;18.67;;;;;;;30.18;48.73;99887.25;4980227;28;20026;-76
2022/08/20 11:34:59;;;;;;;27.35;19.75;;;;;;;30.46;48.04;99885.28;5013758;28;20036;-76
2022/08/20 11:37:24;;;;;;;22.67;18.55;;;;;;;30.59;47.55;99884.59;5012583;28;20042;-77